Seven Hills, Ohio
Current Conditions -  °F | °C
As of 11:53 AM on Saturday 20 Dec 2014 (Local Time) from KBKL Reporting Station
Overcast Overcast  
Wind Chill: 24°   Ceiling: 2800
Heat Index: 31°   Visibility: 10mi
Dew Point: 21°   Wind: 7mph
Humidity: 67%   Direction: 240°WSW
Pressure: 30.29"   Gusts: NA
Location:  41.3833°N, 81.6531°W
Report Text: KBKL 201653Z 24006KT 10SM OVC028 M01/M06 A3029 RMK AO2 SLP264 T10061061
Loading
Personal Weather Stations






























Interactive Weather Map New forecast layout! Learn more

10-Day Weather Forecast

Advertisements
Track Severe Weather on mobile